Time;durP1;ratioP1;P1;durP2;ratioP2;P2;SDS_P1;SDS_P2;PMS_P1;PMS_P2;Temp;Humidity;BMP_temperature;BMP_pressure;BME280_temperature;BME280_humidity;BME280_pressure;Samples;Min_cycle;Max_cycle;Signal;HPM_P1;HPM_P2
2022/08/31 00:04:13;;;;;;;2.83;1.02;;;17.30;94.20;;;;;;5047065;28;20061;-78
2022/08/31 00:06:41;;;;;;;2.70;1.35;;;17.20;94.30;;;;;;5030709;28;20127;-78
2022/08/31 00:09:09;;;;;;;2.78;1.00;;;17.20;94.30;;;;;;5049996;28;20051;-78
2022/08/31 00:11:35;;;;;;;1.50;1.00;;;17.30;94.40;;;;;;5030362;28;20095;-78
2022/08/31 00:14:05;;;;;;;1.88;1.10;;;17.20;94.50;;;;;;5031602;28;20045;-78
2022/08/31 00:16:33;;;;;;;4.38;1.00;;;17.20;94.50;;;;;;5024785;28;20036;-77
2022/08/31 00:18:59;;;;;;;1.52;0.93;;;17.10;94.50;;;;;;5040346;28;20047;-78
2022/08/31 00:21:28;;;;;;;1.98;1.33;;;17.20;94.60;;;;;;5036958;28;20497;-78
2022/08/31 00:23:55;;;;;;;2.22;0.88;;;17.10;94.60;;;;;;5024910;28;20045;-78
2022/08/31 00:26:22;;;;;;;2.33;1.10;;;17.10;94.60;;;;;;5024090;28;20038;-78
2022/08/31 00:28:50;;;;;;;1.88;1.00;;;17.10;94.60;;;;;;5057777;28;20060;-78
2022/08/31 00:31:18;;;;;;;2.53;1.00;;;17.10;94.60;;;;;;5015547;28;20095;-78
2022/08/31 00:33:44;;;;;;;1.42;1.08;;;17.00;94.60;;;;;;5045505;28;20132;-78
2022/08/31 00:36:12;;;;;;;2.08;1.25;;;17.00;94.60;;;;;;5034070;28;20473;-78
2022/08/31 00:38:39;;;;;;;2.35;1.20;;;17.10;94.60;;;;;;5028015;28;20037;-78
2022/08/31 00:41:07;;;;;;;3.03;1.40;;;17.10;94.60;;;;;;5058650;28;20037;-78
2022/08/31 00:43:38;;;;;;;1.77;0.80;;;17.00;94.60;;;;;;5039857;28;20051;-78
2022/08/31 00:46:08;;;;;;;1.30;0.80;;;17.00;94.70;;;;;;5026186;28;20734;-78
2022/08/31 00:48:40;;;;;;;1.23;0.98;;;17.00;94.70;;;;;;5048367;28;20049;-78
2022/08/31 00:51:06;;;;;;;1.80;0.82;;;17.00;94.60;;;;;;5040524;28;20101;-78
2022/08/31 00:53:31;;;;;;;2.30;0.90;;;17.00;94.60;;;;;;5034031;28;20073;-78
2022/08/31 00:55:57;;;;;;;2.60;1.20;;;17.00;94.50;;;;;;5033560;28;20033;-78
2022/08/31 00:58:26;;;;;;;3.05;0.98;;;17.00;94.40;;;;;;5022713;28;20045;-78
2022/08/31 01:00:51;;;;;;;2.72;0.90;;;17.00;94.30;;;;;;5040472;28;20473;-78
2022/08/31 01:03:18;;;;;;;3.95;1.10;;;17.00;94.10;;;;;;5017619;28;20486;-78
2022/08/31 01:05:45;;;;;;;3.67;1.10;;;17.00;93.90;;;;;;5018217;28;20053;-78
2022/08/31 01:08:10;;;;;;;1.35;1.00;;;17.00;93.80;;;;;;5033836;28;20545;-78
2022/08/31 01:10:42;;;;;;;2.83;1.00;;;16.90;93.60;;;;;;5037717;28;20053;-78
2022/08/31 01:13:11;;;;;;;1.35;0.90;;;17.00;93.40;;;;;;5019548;28;20131;-78
2022/08/31 01:15:42;;;;;;;1.23;0.63;;;16.90;93.30;;;;;;5032193;28;20049;-78
2022/08/31 01:18:09;;;;;;;1.73;0.90;;;16.90;93.20;;;;;;5032364;28;20033;-78
2022/08/31 01:20:56;;;;;;;1.70;0.90;;;17.20;93.20;;;;;;5017136;28;20041;-78
2022/08/31 01:23:33;;;;;;;0.90;0.80;;;16.90;92.80;;;;;;5020632;28;20034;-78
2022/08/31 01:26:01;;;;;;;2.60;0.63;;;16.90;92.70;;;;;;5025757;28;20502;-78
2022/08/31 01:28:27;;;;;;;1.25;0.90;;;16.80;92.60;;;;;;5029239;28;20045;-76
2022/08/31 01:31:00;;;;;;;0.98;0.70;;;16.80;92.50;;;;;;5039422;28;20044;-78
2022/08/31 01:33:26;;;;;;;1.15;0.80;;;16.90;92.40;;;;;;5034629;28;20413;-78
2022/08/31 01:35:52;;;;;;;1.60;0.73;;;16.80;92.40;;;;;;5018225;28;20397;-78
2022/08/31 01:38:18;;;;;;;0.85;0.80;;;16.70;92.30;;;;;;5034684;28;20030;-78
2022/08/31 01:40:50;;;;;;;0.80;0.80;;;16.70;92.10;;;;;;5036320;28;20099;-78
2022/08/31 01:43:18;;;;;;;0.88;0.68;;;16.70;92.00;;;;;;5034664;28;20049;-78
2022/08/31 01:45:44;;;;;;;3.40;0.80;;;16.70;91.90;;;;;;5053717;28;20041;-78
2022/08/31 01:48:10;;;;;;;1.50;0.70;;;16.70;91.80;;;;;;5034218;28;20040;-78
2022/08/31 01:50:36;;;;;;;0.63;0.52;;;16.60;91.70;;;;;;5032043;28;20390;-78
2022/08/31 01:53:02;;;;;;;0.65;0.63;;;16.60;91.50;;;;;;5027972;28;20493;-78
2022/08/31 01:55:28;;;;;;;1.17;0.82;;;16.60;91.40;;;;;;5004896;28;20506;-78
2022/08/31 01:57:57;;;;;;;1.05;0.70;;;16.60;91.30;;;;;;5042848;28;20091;-77
2022/08/31 02:00:22;;;;;;;1.30;0.60;;;16.50;91.20;;;;;;5029774;28;20111;-77
2022/08/31 02:02:48;;;;;;;0.73;0.70;;;16.50;91.10;;;;;;5028381;28;20029;-77
2022/08/31 02:05:14;;;;;;;0.75;0.68;;;16.70;91.00;;;;;;5019489;28;20127;-77
2022/08/31 02:07:40;;;;;;;1.10;0.80;;;16.40;90.90;;;;;;5037100;28;20041;-77
2022/08/31 02:10:07;;;;;;;1.33;0.70;;;16.40;90.80;;;;;;5032032;28;20033;-77
2022/08/31 02:12:32;;;;;;;0.85;0.50;;;16.40;90.70;;;;;;5030116;28;20559;-77
2022/08/31 02:14:58;;;;;;;1.08;0.80;;;16.50;90.70;;;;;;5038559;28;20037;-77
2022/08/31 02:17:24;;;;;;;1.75;0.75;;;16.30;90.60;;;;;;5008902;28;20033;-77
2022/08/31 02:19:49;;;;;;;2.05;0.70;;;16.30;90.60;;;;;;5046996;28;20034;-77
2022/08/31 02:22:15;;;;;;;2.08;0.50;;;16.50;90.70;;;;;;5031239;28;20441;-77
2022/08/31 02:24:43;;;;;;;2.03;0.90;;;16.30;90.70;;;;;;5029314;28;20037;-77
2022/08/31 02:27:10;;;;;;;1.05;0.70;;;16.20;90.70;;;;;;5028467;28;20029;-77
2022/08/31 02:29:35;;;;;;;1.10;0.63;;;16.20;90.70;;;;;;5034204;28;20086;-77
2022/08/31 02:32:03;;;;;;;0.50;0.40;;;16.20;90.70;;;;;;5034404;28;20092;-77
2022/08/31 02:34:29;;;;;;;1.63;0.60;;;16.10;90.60;;;;;;5035580;28;20041;-77
2022/08/31 02:36:55;;;;;;;1.17;0.75;;;16.10;90.70;;;;;;5038506;28;20045;-77
2022/08/31 02:39:21;;;;;;;2.40;0.82;;;16.10;90.70;;;;;;5027019;28;20049;-77
2022/08/31 02:41:47;;;;;;;1.23;0.70;;;16.10;90.60;;;;;;5038974;28;20045;-77
2022/08/31 02:44:13;;;;;;;0.50;0.50;;;16.10;90.60;;;;;;5030140;28;20037;-77
2022/08/31 02:46:39;;;;;;;1.02;0.60;;;16.10;90.60;;;;;;5049655;28;20067;-78
2022/08/31 02:49:04;;;;;;;0.52;0.50;;;16.00;90.60;;;;;;5047245;28;20034;-77
2022/08/31 02:51:30;;;;;;;0.60;0.60;;;16.00;90.60;;;;;;5028954;28;20088;-77
2022/08/31 02:53:56;;;;;;;1.10;0.63;;;16.00;90.60;;;;;;5027697;28;20049;-78
2022/08/31 02:56:22;;;;;;;2.80;0.77;;;16.00;90.60;;;;;;5021021;28;20045;-78
2022/08/31 02:58:53;;;;;;;0.90;0.60;;;15.90;90.50;;;;;;5029782;28;20088;-78
2022/08/31 03:01:21;;;;;;;1.45;0.50;;;16.00;90.60;;;;;;5022730;28;20068;-77
2022/08/31 03:03:47;;;;;;;1.75;0.70;;;15.90;90.60;;;;;;5038105;28;20406;-77
2022/08/31 03:06:13;;;;;;;1.90;0.77;;;15.80;90.60;;;;;;5017347;28;20068;-77
2022/08/31 03:08:40;;;;;;;0.60;0.60;;;15.80;90.70;;;;;;5027636;28;20054;-77
2022/08/31 03:11:06;;;;;;;1.15;0.82;;;15.80;90.70;;;;;;5036061;28;20049;-77
2022/08/31 03:13:32;;;;;;;1.27;0.47;;;15.80;90.70;;;;;;5031444;28;20602;-77
2022/08/31 03:15:59;;;;;;;1.00;0.85;;;15.70;90.70;;;;;;5037448;28;20041;-77
2022/08/31 03:18:26;;;;;;;1.42;0.68;;;15.70;90.80;;;;;;5055822;28;20045;-77
2022/08/31 03:20:52;;;;;;;1.88;0.63;;;15.70;90.80;;;;;;5042233;28;20120;-77
2022/08/31 03:23:17;;;;;;;1.45;0.90;;;15.70;90.90;;;;;;5047364;28;20073;-77
2022/08/31 03:25:43;;;;;;;1.27;0.70;;;15.70;90.90;;;;;;5033646;28;20037;-77
2022/08/31 03:28:10;;;;;;;0.90;0.70;;;15.60;90.90;;;;;;5052267;28;20039;-78
2022/08/31 03:30:36;;;;;;;1.42;0.80;;;15.50;91.00;;;;;;5031154;28;20038;-77
2022/08/31 03:33:02;;;;;;;0.95;0.80;;;15.50;91.00;;;;;;5024526;28;20041;-77
2022/08/31 03:35:29;;;;;;;1.20;1.00;;;15.50;91.00;;;;;;5029470;28;20048;-78
2022/08/31 03:37:55;;;;;;;0.63;0.55;;;15.40;91.10;;;;;;5029881;28;20433;-78
2022/08/31 03:40:22;;;;;;;1.40;1.02;;;15.50;91.10;;;;;;5033487;28;20448;-78
2022/08/31 03:42:48;;;;;;;1.30;0.70;;;15.40;91.10;;;;;;5050396;28;20117;-78
2022/08/31 03:45:14;;;;;;;0.60;0.60;;;15.40;91.20;;;;;;5042816;28;20042;-78
2022/08/31 03:47:42;;;;;;;0.88;0.82;;;15.40;91.30;;;;;;5009770;28;20065;-78
2022/08/31 03:50:09;;;;;;;0.85;0.73;;;15.40;91.30;;;;;;5028789;28;20067;-77
2022/08/31 03:52:36;;;;;;;2.47;0.63;;;15.30;91.40;;;;;;5049172;28;20071;-78
2022/08/31 03:55:06;;;;;;;1.00;0.68;;;15.30;91.40;;;;;;5022391;28;20045;-77
2022/08/31 03:57:34;;;;;;;2.08;0.88;;;15.30;91.50;;;;;;5028692;28;20038;-77
2022/08/31 04:00:00;;;;;;;0.85;0.70;;;15.20;91.60;;;;;;5026422;28;20068;-78
2022/08/31 04:02:26;;;;;;;1.27;0.88;;;15.20;91.70;;;;;;5028741;28;20049;-78
2022/08/31 04:04:53;;;;;;;3.88;1.13;;;15.20;91.80;;;;;;5028573;28;20473;-77
2022/08/31 04:07:20;;;;;;;1.50;0.80;;;15.20;91.90;;;;;;5032131;28;20029;-78
2022/08/31 04:09:46;;;;;;;3.53;1.10;;;15.10;92.00;;;;;;5046654;28;20037;-78
2022/08/31 04:12:13;;;;;;;4.03;1.00;;;15.20;92.20;;;;;;5031197;28;20083;-78
2022/08/31 04:14:39;;;;;;;1.23;1.10;;;15.10;92.30;;;;;;5031926;28;20041;-77
2022/08/31 04:17:08;;;;;;;2.85;1.05;;;15.00;92.40;;;;;;5035665;28;20093;-79
2022/08/31 04:19:34;;;;;;;1.92;1.00;;;15.40;92.60;;;;;;5033703;28;20048;-78
2022/08/31 04:21:59;;;;;;;2.58;0.80;;;15.00;92.70;;;;;;5020806;28;20025;-78
2022/08/31 04:24:25;;;;;;;4.78;1.00;;;15.00;92.80;;;;;;5032400;28;20501;-79
2022/08/31 04:26:51;;;;;;;1.17;0.98;;;14.90;93.00;;;;;;5042770;28;20053;-79
2022/08/31 04:29:17;;;;;;;3.70;1.00;;;14.90;93.20;;;;;;5051719;28;20457;-79
2022/08/31 04:31:47;;;;;;;1.13;0.77;;;14.90;93.40;;;;;;5019795;28;20045;-78
2022/08/31 04:34:14;;;;;;;2.75;0.90;;;14.90;93.60;;;;;;5035200;28;20048;-79
2022/08/31 04:36:40;;;;;;;1.13;0.88;;;14.80;93.80;;;;;;5050806;28;20041;-79
2022/08/31 04:39:07;;;;;;;0.85;0.82;;;14.80;94.00;;;;;;5033201;28;20038;-79
2022/08/31 04:41:35;;;;;;;4.43;1.15;;;14.80;94.10;;;;;;5034595;28;20038;-79
2022/08/31 04:44:04;;;;;;;3.30;1.50;;;14.70;94.40;;;;;;5034521;28;20033;-80
2022/08/31 04:46:32;;;;;;;3.72;1.15;;;14.70;94.50;;;;;;5021666;28;20454;-79
2022/08/31 04:49:00;;;;;;;2.15;1.25;;;14.70;94.60;;;;;;5037488;28;20044;-80
2022/08/31 04:51:29;;;;;;;3.97;0.90;;;14.70;94.70;;;;;;5016110;28;20560;-79
2022/08/31 04:53:56;;;;;;;1.65;1.00;;;14.70;95.00;;;;;;5030414;28;20037;-79
2022/08/31 04:56:26;;;;;;;1.40;1.00;;;14.70;95.10;;;;;;5039978;28;20410;-79
2022/08/31 04:58:58;;;;;;;1.75;0.95;;;14.60;95.20;;;;;;5045021;28;20037;-78
2022/08/31 05:01:26;;;;;;;2.60;0.98;;;14.60;95.60;;;;;;5016383;28;20402;-78
2022/08/31 05:03:56;;;;;;;2.95;1.08;;;14.90;95.60;;;;;;5027654;28;20635;-79
2022/08/31 05:06:27;;;;;;;1.90;1.10;;;15.00;95.70;;;;;;5027291;28;20124;-79
2022/08/31 05:08:55;;;;;;;1.43;1.00;;;14.60;95.80;;;;;;5029730;28;20042;-78
2022/08/31 05:11:22;;;;;;;1.48;0.90;;;14.60;95.90;;;;;;5032860;28;20342;-78
2022/08/31 05:13:48;;;;;;;3.70;1.00;;;14.50;96.10;;;;;;5032676;28;20478;-78
2022/08/31 05:16:15;;;;;;;1.10;1.00;;;14.60;96.20;;;;;;5034247;28;20060;-78
2022/08/31 05:18:43;;;;;;;2.58;1.13;;;14.50;96.40;;;;;;5035017;28;20044;-78
2022/08/31 05:21:10;;;;;;;2.47;1.35;;;14.50;96.50;;;;;;5041467;28;20135;-79
2022/08/31 05:23:39;;;;;;;1.33;1.00;;;14.50;96.70;;;;;;5030514;28;20037;-79
2022/08/31 05:26:08;;;;;;;2.25;0.95;;;14.50;96.90;;;;;;5030690;28;20111;-79
2022/08/31 05:28:34;;;;;;;2.53;0.95;;;14.80;97.10;;;;;;5032676;28;20041;-80
2022/08/31 05:31:00;;;;;;;1.42;1.08;;;14.50;97.10;;;;;;5035253;28;20486;-79
2022/08/31 05:33:29;;;;;;;1.55;0.90;;;14.90;97.40;;;;;;5021591;28;20033;-79
2022/08/31 05:35:55;;;;;;;2.20;1.00;;;14.60;97.50;;;;;;5032960;28;20079;-79
2022/08/31 05:38:20;;;;;;;1.33;1.10;;;14.90;97.60;;;;;;5033729;28;20493;-79
2022/08/31 05:40:55;;;;;;;2.45;1.05;;;14.80;97.80;;;;;;5032495;28;20496;-78
2022/08/31 05:43:21;;;;;;;1.65;1.08;;;14.40;97.90;;;;;;5040407;28;20091;-78
2022/08/31 05:45:47;;;;;;;1.90;1.05;;;14.50;98.00;;;;;;5028215;28;20061;-78
2022/08/31 05:48:13;;;;;;;3.30;1.20;;;14.40;98.10;;;;;;5030368;28;20037;-79
2022/08/31 05:50:39;;;;;;;3.45;1.13;;;14.50;98.30;;;;;;5011485;28;20512;-79
2022/08/31 05:53:06;;;;;;;1.95;1.10;;;14.20;98.30;;;;;;5031101;28;20041;-79
2022/08/31 05:55:32;;;;;;;1.33;0.90;;;14.50;98.50;;;;;;5031906;28;20084;-78
2022/08/31 05:57:58;;;;;;;3.03;1.50;;;14.50;98.60;;;;;;5031909;28;20449;-79
2022/08/31 06:00:26;;;;;;;2.33;1.10;;;14.50;98.80;;;;;;5035134;28;20049;-78
2022/08/31 06:02:52;;;;;;;1.70;1.20;;;14.50;98.90;;;;;;5026296;28;20502;-79
2022/08/31 06:05:18;;;;;;;2.20;1.20;;;14.60;99.10;;;;;;5023486;28;20077;-79
2022/08/31 06:07:47;;;;;;;3.88;1.02;;;14.50;99.10;;;;;;5013410;28;20037;-79
2022/08/31 06:10:14;;;;;;;3.50;1.10;;;14.50;99.20;;;;;;5030314;28;20084;-79
2022/08/31 06:12:41;;;;;;;2.45;1.42;;;14.50;99.30;;;;;;5032668;28;20083;-77
2022/08/31 06:15:08;;;;;;;3.17;1.38;;;14.60;99.50;;;;;;5048332;28;20458;-78
2022/08/31 06:17:34;;;;;;;1.70;1.10;;;14.60;99.50;;;;;;5030171;28;20041;-78
2022/08/31 06:20:04;;;;;;;1.88;1.20;;;14.60;99.70;;;;;;5030287;28;20512;-78
2022/08/31 06:22:33;;;;;;;3.53;1.48;;;14.60;99.80;;;;;;5016643;28;20045;-78
2022/08/31 06:24:58;;;;;;;2.88;1.30;;;14.70;99.90;;;;;;5016575;28;20113;-78
2022/08/31 06:27:27;;;;;;;5.40;1.27;;;14.70;99.90;;;;;;5031898;28;20045;-78
2022/08/31 06:29:52;;;;;;;1.80;1.10;;;14.60;99.90;;;;;;5032845;28;20036;-78
2022/08/31 06:32:19;;;;;;;1.50;1.10;;;14.70;99.90;;;;;;5029478;28;20482;-77
2022/08/31 06:34:45;;;;;;;2.63;1.30;;;14.70;99.90;;;;;;5028644;28;20434;-79
2022/08/31 06:37:11;;;;;;;1.63;0.95;;;14.70;99.90;;;;;;5047657;28;20037;-79
2022/08/31 06:39:40;;;;;;;2.28;1.10;;;15.20;99.90;;;;;;5026989;28;20033;-77
2022/08/31 06:42:06;;;;;;;4.45;1.40;;;14.80;99.90;;;;;;5024059;28;20034;-79
2022/08/31 06:44:32;;;;;;;2.60;1.30;;;14.80;99.90;;;;;;5014471;28;20391;-78
2022/08/31 06:46:57;;;;;;;3.05;1.30;;;14.90;99.90;;;;;;5030785;28;20060;-78
2022/08/31 06:49:25;;;;;;;2.58;1.40;;;14.90;99.90;;;;;;5031550;28;20065;-78
2022/08/31 06:51:54;;;;;;;1.38;1.10;;;14.90;99.90;;;;;;5032983;28;20037;-79
2022/08/31 06:54:20;;;;;;;2.88;1.33;;;14.90;99.90;;;;;;5034068;28;20045;-79
2022/08/31 06:56:45;;;;;;;3.22;1.20;;;15.00;99.90;;;;;;5042829;28;20399;-79
2022/08/31 06:59:11;;;;;;;1.60;1.20;;;15.00;99.90;;;;;;5030198;28;20572;-79
2022/08/31 07:01:38;;;;;;;3.28;1.10;;;15.30;99.90;;;;;;5052289;28;20060;-79
2022/08/31 07:04:09;;;;;;;2.28;1.20;;;15.00;99.90;;;;;;5022573;28;20071;-79
2022/08/31 07:06:38;;;;;;;2.38;1.25;;;15.10;99.90;;;;;;5027122;28;20045;-79
2022/08/31 07:09:07;;;;;;;3.13;1.20;;;15.40;99.90;;;;;;5047661;28;20116;-80
2022/08/31 07:11:36;;;;;;;1.95;1.30;;;15.10;99.90;;;;;;5051911;28;20099;-80
2022/08/31 07:14:06;;;;;;;2.97;1.23;;;15.20;99.90;;;;;;5018065;28;20034;-79
2022/08/31 07:16:32;;;;;;;1.65;1.13;;;15.20;99.90;;;;;;5030953;28;20041;-80
2022/08/31 07:19:00;;;;;;;1.35;1.00;;;15.30;99.90;;;;;;5017299;28;20025;-79
2022/08/31 07:21:37;;;;;;;2.17;1.20;;;15.30;99.90;;;;;;5026003;28;20095;-80
2022/08/31 07:24:04;;;;;;;1.90;1.13;;;15.30;99.90;;;;;;5028008;28;20045;-79
2022/08/31 07:26:35;;;;;;;3.80;1.40;;;15.40;99.90;;;;;;5025421;28;20461;-79
2022/08/31 07:29:03;;;;;;;2.33;1.10;;;15.40;99.90;;;;;;5033234;28;20052;-78
2022/08/31 07:31:39;;;;;;;4.00;1.40;;;15.40;99.90;;;;;;5029452;28;20613;-79
2022/08/31 07:34:09;;;;;;;2.13;1.00;;;15.70;99.90;;;;;;5031511;28;20362;-79
2022/08/31 07:42:08;;;;;;;3.25;1.10;;;15.50;99.90;;;;;;5009807;28;20052;-79
2022/08/31 07:42:11;;;;;;;1.83;0.90;;;15.50;99.90;;;;;;5031526;28;20103;-79
2022/08/31 07:44:40;;;;;;;4.63;1.30;;;15.50;99.90;;;;;;5028547;28;20413;-79
2022/08/31 07:47:09;;;;;;;1.48;1.20;;;15.60;99.90;;;;;;5014950;28;20033;-79
2022/08/31 07:49:35;;;;;;;2.15;1.20;;;15.60;99.90;;;;;;5042132;28;20402;-79
2022/08/31 07:52:04;;;;;;;1.10;0.90;;;15.60;99.90;;;;;;5031728;28;20037;-79
2022/08/31 07:54:30;;;;;;;1.83;1.13;;;15.60;99.90;;;;;;5022860;28;20038;-79
2022/08/31 07:57:03;;;;;;;0.85;0.77;;;15.70;99.90;;;;;;5039361;28;20057;-79
2022/08/31 07:59:35;;;;;;;5.07;1.40;;;15.70;99.90;;;;;;5032943;28;20046;-79
2022/08/31 08:02:02;;;;;;;2.08;0.98;;;15.80;99.90;;;;;;5017955;28;20037;-79
2022/08/31 08:04:29;;;;;;;2.80;0.90;;;15.80;99.90;;;;;;5033167;28;20068;-79
2022/08/31 08:06:59;;;;;;;4.10;1.02;;;15.80;99.90;;;;;;5022539;28;20045;-79
2022/08/31 08:09:26;;;;;;;1.55;0.80;;;15.90;99.90;;;;;;5049725;28;20572;-79
2022/08/31 08:11:56;;;;;;;2.53;1.27;;;15.90;99.90;;;;;;5016923;28;20375;-79
2022/08/31 08:14:23;;;;;;;1.65;0.90;;;15.90;99.90;;;;;;5049687;28;20042;-79
2022/08/31 08:16:49;;;;;;;1.67;1.10;;;16.00;99.90;;;;;;5029073;28;20044;-79
2022/08/31 08:19:15;;;;;;;2.45;1.05;;;16.00;99.90;;;;;;5047104;28;20037;-79
2022/08/31 08:21:42;;;;;;;3.10;1.10;;;16.10;99.90;;;;;;5027322;28;20042;-79
2022/08/31 08:24:09;;;;;;;2.30;1.27;;;16.10;99.90;;;;;;5040033;28;20171;-79
2022/08/31 08:26:36;;;;;;;3.55;1.20;;;16.10;99.90;;;;;;5031886;28;20048;-79
2022/08/31 08:29:04;;;;;;;1.77;1.13;;;16.20;99.90;;;;;;5032951;28;20025;-79
2022/08/31 08:31:31;;;;;;;2.22;1.27;;;16.20;99.90;;;;;;5011885;28;20405;-79
2022/08/31 08:33:59;;;;;;;1.65;0.90;;;16.30;99.80;;;;;;5031938;28;20112;-79
2022/08/31 08:36:25;;;;;;;2.65;1.10;;;16.30;99.60;;;;;;5030001;28;20152;-79
2022/08/31 08:38:53;;;;;;;2.63;0.88;;;16.40;99.40;;;;;;5029611;28;20542;-79
2022/08/31 08:41:26;;;;;;;1.35;0.90;;;16.40;99.30;;;;;;5026559;28;20037;-79
2022/08/31 08:43:56;;;;;;;1.35;0.85;;;16.50;99.30;;;;;;5039814;28;20470;-79
2022/08/31 08:46:38;;;;;;;2.00;0.80;;;16.50;99.20;;;;;;5027579;28;20072;-79
2022/08/31 08:49:35;;;;;;;1.63;1.00;;;16.70;99.40;;;;;;5040052;28;20136;-79
2022/08/31 08:52:10;;;;;;;0.95;0.82;;;16.80;99.10;;;;;;5026593;28;20041;-79
2022/08/31 08:54:42;;;;;;;2.70;1.00;;;17.00;99.10;;;;;;5014559;28;20037;-79
2022/08/31 08:57:32;;;;;;;1.67;1.10;;;17.30;99.00;;;;;;5033425;28;20398;-79
2022/08/31 09:00:01;;;;;;;1.25;0.93;;;17.40;98.70;;;;;;5031819;28;20060;-79
2022/08/31 09:02:38;;;;;;;1.08;0.90;;;17.70;98.80;;;;;;5026977;28;20037;-79
2022/08/31 09:05:29;;;;;;;3.50;1.10;;;18.00;98.40;;;;;;5046970;28;20052;-79
2022/08/31 09:08:41;;;;;;;2.25;0.90;;;18.30;98.00;;;;;;5035030;28;20107;-79
2022/08/31 09:11:34;;;;;;;2.05;0.90;;;18.50;96.60;;;;;;5025010;28;20049;-79
2022/08/31 09:14:28;;;;;;;2.40;0.90;;;18.80;96.10;;;;;;5032157;28;20099;-79
2022/08/31 09:17:02;;;;;;;7.72;1.05;;;19.00;95.70;;;;;;5010104;28;20038;-79
2022/08/31 09:19:56;;;;;;;4.15;1.17;;;19.30;95.30;;;;;;5038910;28;20037;-79
2022/08/31 09:22:13;;;;;;;1.77;0.82;;;19.50;94.80;;;;;;5030924;28;20041;-78
2022/08/31 09:24:39;;;;;;;2.90;1.10;;;19.60;93.70;;;;;;5024475;28;20033;-79
2022/08/31 09:27:19;;;;;;;1.65;0.85;;;19.80;93.80;;;;;;5032086;28;20449;-79
2022/08/31 09:29:59;;;;;;;1.88;1.00;;;19.90;93.30;;;;;;5027769;28;20049;-79
2022/08/31 09:32:30;;;;;;;2.05;0.95;;;20.10;92.30;;;;;;5027705;28;20085;-79
2022/08/31 09:35:00;;;;;;;3.50;1.08;;;20.30;92.50;;;;;;5023965;28;20049;-79
2022/08/31 09:37:39;;;;;;;1.88;1.20;;;20.50;91.80;;;;;;5007930;28;20062;-79
2022/08/31 09:40:35;;;;;;;5.28;1.00;;;20.70;91.70;;;;;;5020715;28;20034;-79
2022/08/31 09:43:36;;;;;;;2.65;0.75;;;20.80;89.70;;;;;;5030981;28;20092;-79
2022/08/31 09:46:10;;;;;;;1.80;1.00;;;20.90;87.50;;;;;;5011059;28;20510;-79
2022/08/31 09:48:50;;;;;;;1.50;0.90;;;21.10;89.00;;;;;;5024859;28;20042;-79
2022/08/31 09:51:29;;;;;;;2.38;1.00;;;21.30;87.20;;;;;;5061290;28;20041;-79
2022/08/31 09:57:09;;;;;;;1.75;0.98;;;21.50;86.80;;;;;;5052633;28;20045;-79
2022/08/31 09:59:46;;;;;;;1.15;0.80;;;21.70;86.10;;;;;;5022012;28;20120;-79
2022/08/31 10:02:21;;;;;;;1.33;0.80;;;21.80;84.30;;;;;;5036451;28;20041;-79
2022/08/31 10:05:26;;;;;;;2.15;0.88;;;21.90;82.80;;;;;;5038436;28;20046;-78
2022/08/31 10:08:11;;;;;;;0.80;0.80;;;22.00;80.40;;;;;;5039589;28;20037;-80
2022/08/31 10:10:39;;;;;;;4.38;1.13;;;22.00;80.70;;;;;;5021444;28;20526;-80
2022/08/31 10:13:35;;;;;;;1.95;0.75;;;22.10;81.60;;;;;;5035952;28;20088;-80
2022/08/31 10:16:15;;;;;;;1.35;0.80;;;22.10;78.20;;;;;;5025463;28;20038;-80
2022/08/31 10:18:49;;;;;;;1.67;0.70;;;22.20;78.50;;;;;;5008626;28;20038;-80
2022/08/31 10:21:38;;;;;;;5.78;0.90;;;22.20;77.20;;;;;;5033237;28;20069;-80
2022/08/31 10:24:27;;;;;;;3.10;1.15;;;22.30;75.80;;;;;;5038858;28;20096;-80
2022/08/31 10:27:19;;;;;;;1.95;0.88;;;22.40;75.50;;;;;;5031389;28;20049;-80
2022/08/31 10:30:14;;;;;;;;;;;22.50;75.30;;;;;;5020827;28;20532;-80
2022/08/31 10:32:57;;;;;;;3.78;1.08;;;22.50;73.20;;;;;;5028492;28;19916;-80
2022/08/31 10:35:34;;;;;;;1.10;1.00;;;22.60;74.50;;;;;;5025260;28;20056;-80
2022/08/31 10:38:29;;;;;;;0.98;0.80;;;22.60;74.50;;;;;;5033886;28;20060;-80
2022/08/31 10:41:15;;;;;;;1.77;0.95;;;22.70;74.30;;;;;;5019237;28;20080;-80
2022/08/31 10:44:01;;;;;;;3.75;0.90;;;22.80;72.80;;;;;;5029939;28;20113;-80
2022/08/31 10:46:29;;;;;;;1.63;0.93;;;22.90;74.10;;;;;;5028966;28;20512;-80
2022/08/31 10:48:57;;;;;;;1.15;0.77;;;22.90;72.40;;;;;;5038175;28;20042;-80
2022/08/31 10:51:50;;;;;;;0.98;0.75;;;23.00;72.40;;;;;;5036795;28;20071;-79
2022/08/31 10:54:34;;;;;;;1.58;0.73;;;23.10;69.80;;;;;;5039378;28;20038;-79
2022/08/31 10:57:28;;;;;;;1.05;0.70;;;23.10;70.10;;;;;;5050249;28;20042;-79
2022/08/31 11:03:27;;;;;;;2.40;0.82;;;23.30;69.50;;;;;;5026985;28;20053;-80
2022/08/31 11:06:14;;;;;;;3.05;1.00;;;23.50;68.50;;;;;;5023685;28;20082;-79
2022/08/31 11:09:03;;;;;;;1.05;0.80;;;23.50;68.70;;;;;;5024188;28;20033;-79
2022/08/31 11:11:56;;;;;;;1.33;0.68;;;23.50;67.40;;;;;;5056271;28;20042;-79
2022/08/31 11:14:31;;;;;;;1.40;0.80;;;23.50;67.70;;;;;;5028299;28;20049;-79
2022/08/31 11:17:20;;;;;;;1.08;0.70;;;23.60;67.00;;;;;;5044395;28;20526;-79
2022/08/31 11:20:08;;;;;;;3.65;1.00;;;23.70;66.40;;;;;;5045560;28;20142;-79
2022/08/31 11:23:08;;;;;;;1.67;0.93;;;23.80;65.70;;;;;;5029853;28;20042;-80
2022/08/31 11:25:52;;;;;;;1.52;0.88;;;23.80;66.00;;;;;;5043173;28;20045;-79
2022/08/31 11:28:47;;;;;;;3.00;1.00;;;23.90;66.40;;;;;;5042535;28;20056;-79
2022/08/31 11:31:26;;;;;;;1.25;1.00;;;24.00;65.70;;;;;;5030129;28;20064;-79
2022/08/31 11:33:59;;;;;;;4.00;0.95;;;24.10;65.30;;;;;;5028420;28;20029;-79
2022/08/31 11:36:48;;;;;;;3.05;0.93;;;24.20;64.50;;;;;;5053937;28;20056;-79
2022/08/31 11:39:21;;;;;;;2.78;0.80;;;24.20;62.90;;;;;;5018859;28;20045;-80
2022/08/31 11:41:48;;;;;;;3.55;0.90;;;24.20;63.50;;;;;;5060203;28;20116;-80
2022/08/31 11:44:30;;;;;;;3.75;0.77;;;24.20;63.00;;;;;;5025905;28;20042;-80
2022/08/31 11:47:11;;;;;;;1.48;0.95;;;24.20;61.80;;;;;;5036521;28;20482;-80
2022/08/31 11:49:45;;;;;;;1.90;0.82;;;24.20;62.00;;;;;;5039921;28;20042;-80
2022/08/31 11:52:24;;;;;;;1.48;0.98;;;24.30;62.40;;;;;;5043064;28;20042;-80
2022/08/31 11:55:00;;;;;;;3.10;1.08;;;24.40;61.00;;;;;;5032049;28;20065;-80
2022/08/31 11:57:33;;;;;;;1.42;0.85;;;24.40;61.40;;;;;;5044270;28;20501;-80
2022/08/31 11:59:59;;;;;;;1.60;0.85;;;24.40;60.50;;;;;;5047200;28;20033;-80
2022/08/31 12:02:25;;;;;;;3.38;1.20;;;24.50;60.10;;;;;;5038443;28;20533;-80
2022/08/31 12:05:05;;;;;;;2.58;0.82;;;24.50;60.00;;;;;;5037911;28;20033;-80
2022/08/31 12:07:34;;;;;;;1.30;1.00;;;24.50;58.30;;;;;;5045147;28;20038;-80
2022/08/31 12:10:27;;;;;;;1.38;1.00;;;24.40;58.90;;;;;;5019147;28;20029;-80
2022/08/31 12:13:24;;;;;;;2.08;1.15;;;24.40;58.80;;;;;;5031195;28;20073;-80
2022/08/31 12:16:40;;;;;;;1.02;0.88;;;24.40;58.80;;;;;;5031006;28;20081;-80
2022/08/31 12:25:31;;;;;;;2.88;0.88;;;24.60;59.30;;;;;;5005590;28;20037;-80
2022/08/31 12:28:18;;;;;;;5.15;1.10;;;24.60;58.80;;;;;;5027189;28;20410;-80
2022/08/31 12:30:51;;;;;;;2.15;0.80;;;24.60;59.50;;;;;;5033757;28;20041;-80
2022/08/31 12:33:25;;;;;;;2.97;1.10;;;24.60;59.30;;;;;;5035209;28;20088;-80
2022/08/31 12:36:15;;;;;;;3.08;0.90;;;24.60;58.90;;;;;;5034893;28;20046;-80
2022/08/31 12:38:43;;;;;;;1.92;1.10;;;24.60;58.50;;;;;;5034687;28;20048;-80
2022/08/31 12:41:13;;;;;;;2.55;1.00;;;24.70;58.30;;;;;;5047463;28;20038;-80
2022/08/31 12:43:44;;;;;;;2.33;1.00;;;24.70;58.60;;;;;;5029781;28;20042;-80
2022/08/31 12:46:16;;;;;;;;;;;24.70;58.40;;;;;;5036573;28;20033;-80
2022/08/31 12:49:15;;;;;;;;;;;24.70;57.70;;;;;;5012110;28;19969;-80
2022/08/31 12:51:52;;;;;;;0.90;0.90;;;24.70;57.00;;;;;;5005610;28;20304;-80
2022/08/31 12:54:48;;;;;;;1.90;1.00;;;24.60;58.30;;;;;;5050758;28;20045;-80
2022/08/31 12:57:16;;;;;;;1.38;0.90;;;24.60;57.70;;;;;;5031199;28;20180;-80
2022/08/31 13:00:11;;;;;;;1.50;1.02;;;24.60;57.90;;;;;;5038964;28;20545;-80
2022/08/31 13:02:40;;;;;;;1.17;1.08;;;24.60;56.80;;;;;;5037782;28;20033;-79
2022/08/31 13:05:23;;;;;;;1.67;1.00;;;24.60;57.20;;;;;;5034761;28;20037;-80
2022/08/31 13:07:50;;;;;;;2.05;1.00;;;24.70;57.10;;;;;;5036063;28;20038;-80
2022/08/31 13:10:37;;;;;;;1.80;0.93;;;24.70;57.30;;;;;;5016074;28;20040;-79
2022/08/31 13:13:07;;;;;;;3.90;1.13;;;24.80;56.30;;;;;;5028286;28;20498;-80
2022/08/31 13:15:43;;;;;;;2.00;1.10;;;24.80;56.20;;;;;;5029492;28;20490;-80
2022/08/31 13:18:15;;;;;;;3.22;1.10;;;24.80;56.60;;;;;;5036270;28;20033;-80
2022/08/31 13:20:44;;;;;;;2.90;1.00;;;24.80;56.60;;;;;;5034213;28;20160;-81
2022/08/31 13:23:13;;;;;;;2.35;0.90;;;24.80;56.60;;;;;;5033433;28;20042;-80
2022/08/31 13:25:43;;;;;;;2.20;1.10;;;24.80;56.30;;;;;;5035574;28;20043;-79
2022/08/31 13:28:13;;;;;;;1.13;0.80;;;24.80;56.50;;;;;;5032697;28;20505;-81
2022/08/31 13:30:40;;;;;;;2.10;0.88;;;24.80;56.40;;;;;;5047274;28;20041;-80